Sosnovo-Ozerskoe, Russia
Current Conditions -  °F | °C
As of 11:30 AM on Saturday 20 Dec 2014 (Local Time) from UIAA Reporting Station
Broken Clouds Broken Clouds  
Wind Chill: -8°   Ceiling: 20000
Heat Index: -8°   Visibility: 6mi
Dew Point: -13°   Wind: 0mph
Humidity: 77%   Direction: NA
Pressure: 30.18"   Gusts: NA
Location:  52.53°N, 111.55°E
Report Text: UIAA 200330Z 00000MPS 9000 BKN200 M22/M25 Q1022 TEMPO 5000 BRRMK QFE707 29CLRD70
Loading
Personal Weather Stations






























Interactive Weather Map New forecast layout! Learn more

10-Day Weather Forecast

Advertisements
Track Severe Weather on mobile